Latest Weather Observations for Busselton Airport

IDW60801

Issued at 8:02 am WST Tuesday 1 September 2015 (issued every 30 minutes, with the page automatically refreshed every 10 minutes)

About weather observations | Map of weather stations | Latest weather observations for WA | Other Formats
Station Details ID: 009603 Name: BUSSELTON AERO Lat: -33.69 Lon: 115.40 Height: 16.3 m
Data from the previous 72 hours. | See also: Recent months at Busselton Airport
Date/Time
WST
Temp
°C
App
Temp
°C
Dew
Point
Rel
Hum
%
Delta-T
°C
Wind Press
QNH
hPa
Press
MSL
hPa
Rain
since 9 am
mm
Dir
 
Spd
km/h
Gust
km/h
Spd
kts
Gust
kts
01/08:00am 6.6 5.6 5.7 94 0.4 CALM 0 4 0 2 1023.1 1023.2 6.2
01/07:30am 4.8 2.7 3.8 93 0.4 SSE 4 6 2 3 1022.7 1022.8 6.2
01/07:00am 4.0 1.1 2.7 91 0.5 W 7 11 4 6 1022.1 1022.2 6.2
01/06:30am 4.1 1.3 2.9 92 0.5 SSE 7 7 4 4 1021.8 1021.9 6.2
01/06:00am 3.3 0.3 1.7 89 0.6 ESE 7 9 4 5 1021.7 1021.8 6.2
01/05:30am 3.5 1.0 1.5 87 0.8 SE 4 7 2 4 1021.2 1021.3 6.2
01/05:00am 4.8 1.4 1.6 80 1.3 SW 9 11 5 6 1020.8 1020.9 6.2
01/04:30am 5.4 2.2 2.8 83 1.1 WSW 9 11 5 6 1020.7 1020.8 6.2
01/04:00am 4.5 2.2 2.8 89 0.7 SSW 4 9 2 5 1020.7 1020.8 6.2
01/03:30am 3.9 0.5 1.6 85 0.9 SE 9 13 5 7 1020.4 1020.5 6.2
01/03:00am 5.6 2.4 2.8 82 1.1 SW 9 9 5 5 1020.3 1020.4 6.2
01/02:30am 5.0 0.9 2.0 81 1.2 SSW 13 15 7 8 1020.4 1020.5 6.2
01/02:00am 6.4 2.0 2.7 77 1.5 SSW 15 22 8 12 1020.3 1020.4 6.2
01/01:30am 5.5 1.4 2.2 79 1.3 SSW 13 15 7 8 1020.5 1020.6 6.2
01/01:00am 5.8 1.0 2.4 79 1.4 SSW 17 19 9 10 1020.4 1020.5 6.2
01/12:30am 6.7 3.2 3.3 79 1.4 SW 11 15 6 8 1020.1 1020.2 6.2
01/12:00am 7.7 1.7 3.6 75 1.7 SSW 24 35 13 19 1019.8 1019.8 6.2
 
Date/Time
WST
Temp
°C
App
Temp
°C
Dew
Point
Rel
Hum
%
Delta-T
°C
Wind Press
QNH
hPa
Press
MSL
hPa
Rain
since 9 am
mm
Dir
 
Spd
km/h
Gust
km/h
Spd
kts
Gust
kts
31/11:30pm 7.7 3.2 4.3 79 1.5 SW 17 22 9 12 1020.0 1020.0 6.0
31/11:00pm 7.4 3.2 4.0 79 1.5 SW 15 22 8 12 1019.8 1019.8 6.0
31/10:30pm 7.8 2.8 4.6 80 1.4 SW 20 32 11 17 1020.1 1020.2 6.0
31/10:00pm 7.0 3.3 4.7 85 1.0 SSW 13 17 7 9 1019.6 1019.6 6.0
31/09:30pm 7.2 4.7 5.0 86 1.0 WSW 7 9 4 5 1019.6 1019.6 6.0
31/09:00pm 7.6 4.4 4.9 83 1.2 SW 11 15 6 8 1019.2 1019.2 6.0
31/08:30pm 7.9 3.8 4.5 79 1.5 SSW 15 20 8 11 1019.2 1019.2 6.0
31/08:00pm 8.7 3.8 5.1 78 1.6 SSW 20 32 11 17 1019.2 1019.2 6.0
31/07:30pm 8.7 5.9 5.3 79 1.5 WSW 9 13 5 7 1018.6 1018.6 6.0
31/07:00pm 9.0 5.9 5.7 80 1.5 SW 11 17 6 9 1018.1 1018.1 6.0
31/06:30pm 8.9 5.5 6.0 82 1.3 SW 13 17 7 9 1017.8 1017.8 6.0
31/06:00pm 9.8 5.1 6.2 78 1.7 SW 20 32 11 17 1017.7 1017.7 6.0
31/05:40pm 11.1 6.1 6.6 74 2.1 SW 22 44 12 24 1017.7 1017.7 6.0
31/05:30pm 10.8 6.5 6.9 77 1.8 SW 19 24 10 13 1017.1 1017.1 6.0
31/05:00pm 11.2 5.5 6.7 74 2.1 SW 26 35 14 19 1017.0 1017.0 6.0
31/04:30pm 11.5 6.1 9.4 87 1.1 SSW 28 41 15 22 1016.7 1016.7 6.0
31/04:00pm 11.6 6.4 9.0 84 1.3 SW 26 33 14 18 1016.3 1016.3 5.4
31/03:30pm 12.4 7.6 7.5 72 2.4 SW 22 32 12 17 1016.0 1016.0 4.4
31/03:00pm 12.0 6.2 8.1 77 1.9 SW 28 37 15 20 1015.8 1015.8 4.4
31/02:49pm 11.7 5.9 7.8 77 1.9 SW 28 46 15 25 1016.0 1016.0 4.4
31/02:30pm 12.5 6.7 8.0 74 2.2 SSW 28 35 15 19 1015.4 1015.4 4.4
31/02:00pm 10.9 7.1 9.2 89 0.8 WSW 19 28 10 15 1015.2 1015.2 4.4
31/01:43pm 11.9 7.5 7.4 74 2.2 W 20 48 11 26 1015.4 1015.4 3.2
31/01:30pm 14.3 11.4 8.0 66 3.1 WSW 13 19 7 10 1014.6 1014.6 2.2
31/01:00pm 13.5 10.5 7.9 69 2.8 SW 13 20 7 11 1015.0 1015.0 2.2
31/12:30pm 12.9 7.0 9.0 77 2.0 SW 30 39 16 21 1015.9 1015.9 2.2
31/12:00pm 12.2 7.6 9.8 85 1.2 SW 24 32 13 17 1016.0 1016.0 2.2
31/11:30am 11.9 8.8 10.3 90 0.8 WSW 17 22 9 12 1016.1 1016.1 2.2
31/11:00am 12.1 8.4 10.0 87 1.1 W 20 30 11 16 1016.1 1016.1 1.2
31/10:30am 12.3 7.5 9.0 80 1.7 WSW 24 37 13 20 1015.7 1015.7 0.4
31/10:00am 13.0 9.1 9.4 79 1.8 W 20 28 11 15 1015.8 1015.8 0.4
31/09:30am 13.0 7.6 9.6 80 1.7 NW 28 44 15 24 1015.8 1015.8 0.4
31/09:26am 14.3 9.0 9.9 75 2.3 NW 28 44 15 24 1015.9 1015.9 0.2
31/09:00am 14.3 10.6 10.3 77 2.1 NW 20 26 11 14 1016.1 1016.1 0.4
31/08:30am 12.5 9.1 10.4 87 1.1 NW 19 26 10 14 1016.5 1016.5 0.4
31/08:00am 12.8 10.9 11.7 93 0.6 WNW 13 26 7 14 1016.5 1016.5 0.0
31/07:30am 9.3 7.4 9.2 99 0.0 E 9 13 5 7 1016.4 1016.4 0.0
31/07:00am 7.2 4.8 7.1 99 0.0 E 9 9 5 5 1016.4 1016.4 0.0
31/06:30am 7.7 5.8 7.6 99 0.0 E 7 9 4 5 1016.6 1016.6 0.0
31/06:00am 8.5 6.0 8.4 99 0.0 E 11 13 6 7 1016.7 1016.7 0.0
31/05:30am 8.3 6.6 8.2 99 0.0 ESE 7 9 4 5 1017.0 1017.0 0.0
31/05:00am 7.9 4.9 7.8 99 0.0 E 13 15 7 8 1017.1 1017.1 0.0
31/04:30am 8.3 5.4 8.2 99 0.0 ESE 13 17 7 9 1017.4 1017.4 0.0
31/04:00am 7.7 5.4 7.4 98 0.1 E 9 11 5 6 1017.6 1017.6 0.0
31/03:30am 7.2 4.8 6.8 97 0.2 ENE 9 11 5 6 1017.8 1017.8 0.0
31/03:00am 7.2 4.7 6.5 95 0.3 E 9 11 5 6 1018.2 1018.2 0.0
31/02:30am 7.4 4.9 6.7 95 0.3 E 9 11 5 6 1018.6 1018.6 0.0
31/02:00am 7.4 4.9 6.5 94 0.4 E 9 11 5 6 1018.8 1018.8 0.0
31/01:30am 8.2 5.5 7.3 94 0.4 ENE 11 15 6 8 1019.2 1019.2 0.0
31/01:00am 8.2 5.9 7.4 95 0.4 ENE 9 13 5 7 1019.4 1019.4 0.0
31/12:30am 7.8 5.7 6.7 93 0.5 ENE 7 9 4 5 1019.5 1019.5 0.0
31/12:00am 8.7 6.8 7.6 93 0.5 E 7 9 4 5 1019.7 1019.7 0.0
 
Date/Time
WST
Temp
°C
App
Temp
°C
Dew
Point
Rel
Hum
%
Delta-T
°C
Wind Press
QNH
hPa
Press
MSL
hPa
Rain
since 9 am
mm
Dir
 
Spd
km/h
Gust
km/h
Spd
kts
Gust
kts
30/11:30pm 8.9 7.3 7.8 93 0.5 N 6 9 3 5 1020.1 1020.2 0.0
30/11:00pm 8.0 7.2 6.6 91 0.6 CALM 0 0 0 0 1020.3 1020.4 0.0
30/10:30pm 7.4 6.4 5.7 89 0.8 CALM 0 0 0 0 1020.5 1020.6 0.0
30/10:00pm 7.9 5.8 5.9 87 0.9 E 6 7 3 4 1020.7 1020.8 0.0
30/09:30pm 8.9 6.4 6.5 85 1.1 SE 9 9 5 5 1020.8 1020.9 0.0
30/09:00pm 10.5 8.1 7.0 79 1.7 WSW 9 13 5 7 1021.1 1021.2 0.0
30/08:30pm 9.9 7.2 5.7 75 1.9 W 9 13 5 7 1021.2 1021.3 0.0
30/08:00pm 9.1 8.1 5.7 79 1.5 CALM 0 0 0 0 1021.0 1021.1 0.0
30/07:30pm 9.7 7.5 5.1 73 2.1 WSW 6 7 3 4 1020.7 1020.8 0.0
30/07:00pm 11.4 9.0 5.1 65 2.9 WSW 7 9 4 5 1020.5 1020.6 0.0
30/06:30pm 12.4 9.5 4.9 60 3.4 WSW 9 13 5 7 1020.4 1020.5 0.0
30/06:00pm 13.1 10.3 5.3 59 3.6 W 9 11 5 6 1020.2 1020.3 0.0
30/05:30pm 14.2 11.4 5.3 55 4.2 WSW 9 11 5 6 1020.1 1020.2 0.0
30/05:00pm 14.4 11.2 5.0 53 4.4 WSW 11 15 6 8 1019.9 1019.9 0.0
30/04:30pm 15.4 11.3 4.2 47 5.2 WSW 15 19 8 10 1019.7 1019.7 0.0
30/04:00pm 15.5 11.4 4.2 47 5.2 W 15 19 8 10 1019.7 1019.7 0.0
30/03:30pm 14.9 11.2 4.3 49 4.9 WSW 13 19 7 10 1019.7 1019.7 0.0
30/03:00pm 16.1 11.8 5.1 48 5.2 WSW 17 26 9 14 1019.6 1019.6 0.0
30/02:30pm 16.1 12.0 4.2 45 5.5 W 15 24 8 13 1019.3 1019.3 0.0
30/02:00pm 15.2 10.4 4.9 50 4.8 WSW 19 24 10 13 1019.2 1019.2 0.0
30/01:30pm 15.8 10.5 4.8 48 5.2 W 22 30 12 16 1019.1 1019.1 0.0
30/01:00pm 15.9 11.1 4.6 47 5.3 WSW 19 28 10 15 1019.3 1019.3 0.0
30/12:30pm 15.4 10.8 3.5 45 5.4 SW 17 24 9 13 1019.6 1019.6 0.0
30/12:00pm 14.6 10.9 8.1 65 3.2 S 17 30 9 16 1019.8 1019.8 0.0
30/11:30am 14.5 10.4 8.0 65 3.2 SW 19 24 10 13 1019.9 1019.9 0.0
30/11:00am 15.0 10.9 6.3 56 4.2 SW 17 24 9 13 1020.0 1020.0 0.0
30/10:30am 14.1 9.5 5.7 57 4.0 SW 19 26 10 14 1019.9 1019.9 0.0
30/10:00am 14.2 11.0 8.4 68 2.9 SSW 15 20 8 11 1019.8 1019.8 0.0
30/09:30am 13.6 10.1 7.4 66 3.0 S 15 19 8 10 1019.6 1019.6 0.0
30/09:00am 13.0 9.6 7.7 70 2.6 SSW 15 20 8 11 1019.2 1019.2 14.0
30/08:30am 12.4 9.6 7.1 70 2.6 SW 11 17 6 9 1018.9 1018.9 13.8
30/08:00am 10.8 8.6 7.7 81 1.5 SW 9 13 5 7 1018.4 1018.4 13.8
30/07:30am 10.3 7.9 8.6 89 0.8 WSW 11 17 6 9 1018.0 1018.0 13.8
30/07:00am 8.2 7.3 7.6 96 0.3 S 2 9 1 5 1017.6 1017.6 13.6
30/06:30am 7.8 7.0 6.7 93 0.5 CALM 0 0 0 0 1016.7 1016.7 13.6
30/06:00am 7.8 6.9 5.9 88 0.9 CALM 0 0 0 0 1016.1 1016.1 13.6
30/05:30am 8.7 7.9 6.3 85 1.1 CALM 0 0 0 0 1015.8 1015.8 13.6
30/05:00am 11.3 9.0 7.6 78 1.8 WSW 9 13 5 7 1015.5 1015.5 13.6
30/04:30am 11.7 9.6 8.2 79 1.7 W 9 11 5 6 1014.9 1014.9 13.6
30/04:00am 12.1 10.1 8.6 79 1.7 WSW 9 13 5 7 1014.9 1014.9 13.6
30/03:30am 12.1 10.7 9.7 85 1.2 W 7 9 4 5 1014.8 1014.8 13.6
30/03:00am 12.3 10.6 9.9 85 1.2 WSW 9 13 5 7 1014.5 1014.5 13.6
30/02:30am 12.2 10.5 9.9 86 1.2 WSW 9 11 5 6 1014.4 1014.4 13.6
30/02:00am 12.5 10.8 10.0 85 1.3 W 9 13 5 7 1014.4 1014.4 13.6
30/01:30am 12.6 9.4 9.8 83 1.4 WSW 17 28 9 15 1014.1 1014.1 13.6
30/01:21am 12.9 8.6 9.5 80 1.7 W 22 46 12 25 1014.1 1014.1 13.6
30/01:17am 13.2 9.8 9.3 77 2.0 W 17 44 9 24 1014.1 1014.1 13.6
30/01:00am 12.9 11.1 9.4 79 1.8 WNW 9 13 5 7 1013.4 1013.4 13.6
30/12:30am 13.5 11.5 10.3 81 1.7 W 11 15 6 8 1013.2 1013.2 13.6
30/12:00am 13.5 12.2 11.2 86 1.2 WNW 9 11 5 6 1012.9 1012.9 13.6
 
Date/Time
WST
Temp
°C
App
Temp
°C
Dew
Point
Rel
Hum
%
Delta-T
°C
Wind Press
QNH
hPa
Press
MSL
hPa
Rain
since 9 am
mm
Dir
 
Spd
km/h
Gust
km/h
Spd
kts
Gust
kts
29/11:30pm 13.6 12.3 11.3 86 1.2 WNW 9 9 5 5 1012.7 1012.7 13.6
29/11:00pm 14.0 11.9 11.0 82 1.6 W 13 19 7 10 1012.7 1012.7 13.6
29/10:30pm 14.2 11.2 10.8 80 1.8 WNW 17 24 9 13 1012.6 1012.6 13.4
29/10:00pm 14.8 12.8 11.6 81 1.7 NW 13 19 7 10 1012.5 1012.5 13.2
29/09:30pm 14.3 12.6 12.5 89 1.0 NW 13 19 7 10 1012.5 1012.5 13.2
29/09:00pm 13.6 12.6 12.3 92 0.7 NNW 9 11 5 6 1012.4 1012.4 13.2
29/08:30pm 13.3 12.4 11.5 89 1.0 N 7 9 4 5 1012.3 1012.3 13.2
29/08:00pm 14.1 13.3 11.8 86 1.2 NW 7 9 4 5 1012.0 1012.0 13.2
29/07:30pm 14.3 13.5 11.6 84 1.4 NW 7 9 4 5 1011.9 1011.9 13.2
29/07:00pm 14.8 13.6 11.6 81 1.7 W 9 13 5 7 1011.7 1011.7 13.2
29/06:30pm 15.6 13.1 11.2 75 2.4 W 15 22 8 12 1011.5 1011.5 13.2
29/06:00pm 16.1 14.2 11.7 75 2.4 W 13 20 7 11 1010.9 1010.9 13.2
29/05:30pm 16.3 14.7 12.7 79 2.0 WNW 13 17 7 9 1010.6 1010.6 13.2
29/05:00pm 16.5 15.2 12.5 77 2.2 WNW 11 17 6 9 1010.4 1010.4 13.2
29/04:30pm 17.2 15.1 12.3 73 2.7 W 15 19 8 10 1010.2 1010.2 13.2
29/04:00pm 18.0 14.7 11.6 66 3.5 WNW 20 28 11 15 1010.0 1010.0 13.2
29/03:30pm 18.3 15.4 12.3 68 3.3 WNW 19 28 10 15 1010.0 1010.0 13.2
29/03:00pm 17.7 14.5 11.9 69 3.2 W 20 32 11 17 1009.7 1009.7 13.2
29/02:30pm 18.3 16.0 15.7 85 1.5 W 22 32 12 17 1009.2 1009.2 13.2
29/02:00pm 18.6 17.9 18.6 100 0.0 W 20 28 11 15 1008.7 1008.7 13.2
29/01:30pm 17.2 14.4 17.2 100 0.0 W 28 37 15 20 1008.4 1008.4 13.2
29/01:00pm 17.4 13.3 17.4 100 0.0 NW 35 54 19 29 1007.6 1007.6 13.2
29/12:45pm 16.6 9.7 16.6 100 0.0 NNW 48 69 26 37 1006.8 1006.8 13.2
29/12:40pm 16.8 10.4 16.8 100 0.0 N 46 69 25 37 1006.6 1006.6 13.0
29/12:32pm 16.3 12.3 16.3 100 0.0 NNE 32 57 17 31 1006.5 1006.5 12.8
29/12:30pm 16.1 12.8 16.1 100 0.0 NNE 28 43 15 23 1006.7 1006.7 12.8
29/12:13pm 15.9 11.2 15.9 100 0.0 N 35 54 19 29 1007.9 1007.9 10.0
29/12:00pm 15.9 11.2 15.9 100 0.0 NNE 35 46 19 25 1008.0 1008.0 7.2
29/11:30am 16.3 11.4 16.3 100 0.0 NNE 37 57 20 31 1009.1 1009.1 4.4
29/11:23am 16.1 11.5 16.1 100 0.0 NNE 35 57 19 31 1009.1 1009.1 4.2
29/11:00am 16.3 12.1 16.3 100 0.0 NNE 33 44 18 24 1009.3 1009.3 1.6
29/10:30am 16.4 12.9 16.4 100 0.0 NNE 30 37 16 20 1009.7 1009.7 0.2
29/10:00am 16.9 15.1 16.9 100 0.0 N 22 30 12 16 1010.2 1010.2 0.0
29/09:30am 16.5 14.1 16.5 100 0.0 NNE 24 32 13 17 1010.4 1010.4 0.0
29/09:00am 16.7 14.3 16.5 99 0.1 NNE 24 33 13 18 1010.7 1010.7 0.0
29/08:30am 16.5 14.1 16.3 99 0.1 NNE 24 30 13 16 1010.8 1010.8 0.0

Other Formats:

Comma delimited format used in spreadsheet applications
http://www.bom.gov.au/fwo/IDW60801/IDW60801.95611.axf

JavaScript Object Notation format (JSON) in row-major order
http://www.bom.gov.au/fwo/IDW60801/IDW60801.95611.json